Time;durP1;ratioP1;P1;durP2;ratioP2;P2;SDS_P1;SDS_P2;PMS_P1;PMS_P2;Temp;Humidity;BMP_temperature;BMP_pressure;BME280_temperature;BME280_humidity;BME280_pressure;Samples;Min_cycle;Max_cycle;Signal;HPM_P1;HPM_P2
2023/10/19 00:02:07;;;;;;;16.97;14.37;;;;;;;11.68;94.10;99704.53;5033664;28;20216;-66
2023/10/19 00:04:34;;;;;;;15.33;13.53;;;;;;;11.71;93.83;99703.34;5033404;28;20203;-66
2023/10/19 00:07:01;;;;;;;14.10;12.87;;;;;;;11.68;93.60;99704.53;5033618;28;20634;-66
2023/10/19 00:09:35;;;;;;;14.20;12.90;;;;;;;11.68;92.97;99703.72;5033683;28;20196;-66
2023/10/19 00:12:02;;;;;;;14.97;13.37;;;;;;;11.68;93.27;99699.22;5034140;28;20191;-65
2023/10/19 00:14:32;;;;;;;14.53;13.03;;;;;;;11.67;92.92;99691.47;5033243;28;20201;-66
2023/10/19 00:17:00;;;;;;;14.77;12.60;;;;;;;11.64;92.66;99687.31;5033089;28;20640;-66
2023/10/19 00:19:28;;;;;;;14.73;13.30;;;;;;;11.61;92.57;99682.41;5033367;28;20284;-66
2023/10/19 00:22:01;;;;;;;14.80;13.37;;;;;;;11.57;92.38;99675.00;5032954;28;20564;-66
2023/10/19 00:24:27;;;;;;;15.23;13.73;;;;;;;11.51;92.82;99668.63;5033526;28;20211;-66
2023/10/19 00:26:55;;;;;;;14.77;13.27;;;;;;;11.54;92.84;99670.06;5033276;28;20294;-66
2023/10/19 00:29:30;;;;;;;14.90;13.50;;;;;;;11.47;92.95;99664.72;5033045;28;20244;-69
2023/10/19 00:31:59;;;;;;;14.90;13.50;;;;;;;11.50;92.72;99669.63;5032988;28;20278;-69
2023/10/19 00:34:28;;;;;;;14.90;13.50;;;;;;;11.48;92.42;99662.88;5033019;28;20726;-69
2023/10/19 00:36:55;;;;;;;15.13;13.73;;;;;;;11.45;92.74;99655.28;5032983;28;20227;-69
2023/10/19 00:39:23;;;;;;;15.20;13.87;;;;;;;11.44;92.52;99659.81;5032866;28;20196;-67
2023/10/19 00:41:55;;;;;;;13.83;12.63;;;;;;;11.40;92.81;99650.56;5033436;28;20550;-66
2023/10/19 00:44:30;;;;;;;17.23;12.70;;;;;;;11.40;92.90;99658.56;5052672;28;20182;-65
2023/10/19 00:47:03;;;;;;;13.53;12.10;;;;;;;11.36;93.36;99657.31;5036537;28;20307;-66
2023/10/19 00:49:31;;;;;;;13.93;12.60;;;;;;;11.27;94.31;99650.47;5032976;28;20192;-66
2023/10/19 00:52:03;;;;;;;14.57;12.67;;;;;;;11.27;93.07;99653.16;5032794;28;20257;-64
2023/10/19 00:54:33;;;;;;;15.43;13.83;;;;;;;11.27;93.49;99642.50;5032862;28;20242;-65
2023/10/19 00:57:04;;;;;;;14.50;13.20;;;;;;;11.27;92.99;99647.03;5032605;28;20223;-66
2023/10/19 00:59:35;;;;;;;14.33;13.03;;;;;;;11.27;93.00;99650.47;5032442;28;20677;-66
2023/10/19 01:02:16;;;;;;;13.50;12.40;;;;;;;11.27;93.21;99647.81;5032715;28;20184;-66
2023/10/19 01:04:44;;;;;;;13.70;12.40;;;;;;;11.28;93.23;99643.34;5032343;28;20194;-66
2023/10/19 01:07:15;;;;;;;13.37;12.27;;;;;;;11.23;92.71;99635.13;5031622;28;20211;-67
2023/10/19 01:09:44;;;;;;;14.07;12.87;;;;;;;11.24;92.90;99637.59;5032494;28;20187;-67
2023/10/19 01:12:25;;;;;;;14.70;13.20;;;;;;;11.23;93.10;99633.28;5032685;28;20199;-67
2023/10/19 01:15:07;;;;;;;15.07;13.57;;;;;;;11.22;93.22;99623.66;5032185;28;20186;-67
2023/10/19 01:17:39;;;;;;;13.20;11.93;;;;;;;11.21;93.47;99627.34;5031164;28;20223;-66
2023/10/19 01:20:19;;;;;;;14.37;13.10;;;;;;;11.18;94.18;99627.75;5032576;28;20196;-66
2023/10/19 01:22:54;;;;;;;14.37;13.10;;;;;;;11.03;94.13;99627.88;5032224;28;20202;-66
2023/10/19 01:25:26;;;;;;;14.50;13.00;;;;;;;10.94;94.24;99625.53;5032357;28;20268;-67
2023/10/19 01:27:57;;;;;;;14.90;13.50;;;;;;;10.92;95.40;99622.28;5032271;28;20275;-66
2023/10/19 01:30:26;;;;;;;13.93;12.60;;;;;;;10.86;95.46;99617.72;5031992;28;20192;-68
2023/10/19 01:32:54;;;;;;;14.93;13.40;;;;;;;10.79;95.14;99611.56;5032183;28;20209;-65
2023/10/19 01:35:20;;;;;;;13.93;12.60;;;;;;;10.80;95.02;99610.53;5031749;28;20261;-65
2023/10/19 01:37:46;;;;;;;14.67;13.17;;;;;;;10.78;96.07;99615.22;5031895;28;20236;-66
2023/10/19 01:40:20;;;;;;;15.00;13.50;;;;;;;10.81;95.94;99622.81;5032083;28;20203;-69
2023/10/19 01:42:46;;;;;;;14.00;12.73;;;;;;;10.83;94.68;99628.75;5040179;28;20565;-66
2023/10/19 01:45:12;;;;;;;14.50;12.87;;;;;;;10.90;95.01;99618.97;5049739;28;20681;-65
2023/10/19 01:47:40;;;;;;;14.57;13.27;;;;;;;10.97;94.94;99617.19;5031854;28;20200;-65
2023/10/19 01:50:19;;;;;;;14.27;12.40;;;;;;;11.01;94.92;99623.75;5031579;28;20259;-65
2023/10/19 01:52:45;;;;;;;17.13;13.20;;;;;;;11.01;95.48;99618.44;5031796;28;20570;-66
2023/10/19 01:55:20;;;;;;;15.07;13.50;;;;;;;10.98;94.43;99628.66;5031780;28;20201;-65
2023/10/19 01:57:46;;;;;;;14.43;13.07;;;;;;;11.00;94.47;99625.59;5031685;28;20225;-65
2023/10/19 02:00:22;;;;;;;14.50;13.20;;;;;;;11.02;94.42;99627.25;5031531;28;20617;-65
2023/10/19 02:02:48;;;;;;;14.20;12.80;;;;;;;11.03;94.11;99624.41;5031516;28;20648;-66
2023/10/19 02:05:18;;;;;;;13.90;12.70;;;;;;;11.06;94.31;99624.00;5031722;28;20279;-65
2023/10/19 02:07:44;;;;;;;15.03;13.43;;;;;;;11.10;94.16;99627.09;5031351;28;20208;-68
2023/10/19 02:10:11;;;;;;;14.93;13.47;;;;;;;11.12;94.01;99627.69;5031404;28;20204;-67
2023/10/19 02:12:42;;;;;;;14.97;12.40;;;;;;;11.17;94.43;99626.09;5031310;28;20212;-65
2023/10/19 02:15:09;;;;;;;14.17;12.87;;;;;;;11.21;94.60;99624.69;5031368;28;20195;-65
2023/10/19 02:17:35;;;;;;;14.47;13.03;;;;;;;11.25;94.65;99625.09;5031041;28;20764;-66
2023/10/19 02:20:12;;;;;;;13.93;12.73;;;;;;;11.24;93.99;99626.97;5035684;28;20203;-67
2023/10/19 02:22:38;;;;;;;15.17;13.60;;;;;;;11.19;95.36;99618.72;5035688;28;20183;-67
2023/10/19 02:25:05;;;;;;;14.37;12.83;;;;;;;11.16;95.89;99624.47;5035261;28;20223;-66
2023/10/19 02:27:32;;;;;;;15.83;13.37;;;;;;;11.14;95.79;99615.84;5035600;28;20206;-66
2023/10/19 02:29:59;;;;;;;14.33;13.00;;;;;;;11.13;95.36;99627.50;5035205;28;20265;-66
2023/10/19 02:32:26;;;;;;;14.70;13.20;;;;;;;11.07;95.01;99625.66;5035146;28;20222;-66
2023/10/19 02:34:52;;;;;;;16.03;13.47;;;;;;;11.07;96.65;99630.97;5034878;28;20231;-66
2023/10/19 02:37:18;;;;;;;14.80;13.37;;;;;;;11.09;96.01;99628.91;5035339;28;20228;-65
2023/10/19 02:39:44;;;;;;;14.87;12.70;;;;;;;11.10;95.12;99635.88;5035290;28;20263;-65
2023/10/19 02:42:11;;;;;;;14.10;12.73;;;;;;;11.10;96.38;99646.50;5038641;28;20186;-65
2023/10/19 02:44:37;;;;;;;14.30;12.80;;;;;;;11.04;95.56;99637.47;5055073;28;20233;-65
2023/10/19 02:47:08;;;;;;;13.63;12.33;;;;;;;10.99;95.75;99639.09;5037538;28;20211;-65
2023/10/19 02:49:38;;;;;;;14.63;13.20;;;;;;;10.96;96.63;99642.13;5035175;28;20280;-65
2023/10/19 02:52:05;;;;;;;13.67;12.37;;;;;;;10.92;96.42;99640.88;5034786;28;20725;-66
2023/10/19 02:54:32;;;;;;;13.07;11.97;;;;;;;10.86;96.20;99641.63;5034984;28;20206;-66
2023/10/19 02:57:00;;;;;;;15.00;13.60;;;;;;;10.84;96.35;99641.03;5035009;28;20211;-66
2023/10/19 02:59:28;;;;;;;13.67;12.13;;;;;;;10.85;96.89;99642.66;5034646;28;20594;-69
2023/10/19 03:02:01;;;;;;;13.77;12.47;;;;;;;10.93;96.86;99642.50;5034555;28;20214;-66
2023/10/19 03:04:28;;;;;;;14.57;13.07;;;;;;;10.86;96.60;99639.81;5034543;28;20191;-66
2023/10/19 03:06:56;;;;;;;14.23;12.93;;;;;;;10.83;96.10;99644.72;5034500;28;20709;-66
2023/10/19 03:09:23;;;;;;;13.80;12.00;;;;;;;10.91;97.09;99641.91;5034382;28;20207;-66
2023/10/19 03:11:52;;;;;;;13.83;12.47;;;;;;;10.86;95.91;99638.97;5034909;28;20203;-66
2023/10/19 03:14:18;;;;;;;15.47;12.13;;;;;;;10.84;95.92;99646.34;5034430;28;20249;-66
2023/10/19 03:16:46;;;;;;;20.03;12.20;;;;;;;10.79;96.87;99641.59;5034668;28;20203;-65
2023/10/19 03:19:12;;;;;;;12.63;11.00;;;;;;;10.88;97.59;99642.28;5034543;28;20227;-66
2023/10/19 03:21:42;;;;;;;15.03;12.60;;;;;;;10.90;96.90;99650.88;5034242;28;20578;-65
2023/10/19 03:24:22;;;;;;;12.63;11.67;;;;;;;10.99;96.92;99647.06;5034485;28;20200;-66
2023/10/19 03:26:49;;;;;;;13.57;12.10;;;;;;;11.03;96.10;99650.97;5034272;28;20189;-66
2023/10/19 03:29:23;;;;;;;13.33;11.93;;;;;;;11.00;96.42;99656.69;5033475;28;20624;-66
2023/10/19 03:31:49;;;;;;;15.23;12.77;;;;;;;10.98;96.93;99653.38;5033915;28;20297;-66
2023/10/19 03:34:17;;;;;;;14.00;12.57;;;;;;;11.08;97.29;99648.56;5033917;28;20285;-65
2023/10/19 03:36:45;;;;;;;15.13;12.20;;;;;;;11.20;97.60;99652.31;5034321;28;20196;-65
2023/10/19 03:39:13;;;;;;;13.40;12.13;;;;;;;11.30;97.23;99646.63;5033895;28;20320;-67
2023/10/19 03:41:41;;;;;;;13.70;12.37;;;;;;;11.38;96.44;99644.63;5034188;28;20190;-68
2023/10/19 03:44:13;;;;;;;16.10;12.70;;;;;;;11.42;96.17;99651.19;5053342;28;20692;-69
2023/10/19 03:46:52;;;;;;;13.37;12.07;;;;;;;11.41;95.52;99646.88;5040069;28;20198;-69
2023/10/19 03:49:19;;;;;;;12.60;11.50;;;;;;;11.29;95.33;99637.81;5034144;28;20594;-66
2023/10/19 03:52:00;;;;;;;14.63;11.53;;;;;;;11.22;95.63;99639.63;5033652;28;20196;-67
2023/10/19 03:54:26;;;;;;;13.33;11.80;;;;;;;11.13;95.47;99632.00;5033960;28;20185;-66
2023/10/19 03:56:55;;;;;;;13.90;12.33;;;;;;;11.07;95.76;99636.28;5033614;28;20206;-67
2023/10/19 03:59:22;;;;;;;12.40;11.27;;;;;;;11.07;96.45;99628.31;5033416;28;20261;-66
2023/10/19 04:01:48;;;;;;;13.50;12.17;;;;;;;11.17;96.44;99620.78;5033594;28;20205;-66
2023/10/19 04:04:16;;;;;;;18.53;12.67;;;;;;;11.23;95.71;99629.81;5033733;28;20203;-65
2023/10/19 04:06:47;;;;;;;15.57;12.43;;;;;;;11.25;95.22;99628.59;5034074;28;20194;-65
2023/10/19 04:09:17;;;;;;;14.27;12.83;;;;;;;11.24;95.61;99621.66;5033660;28;20188;-66
2023/10/19 04:11:49;;;;;;;18.40;12.97;;;;;;;11.17;95.01;99628.75;5033430;28;20778;-65
2023/10/19 04:14:16;;;;;;;17.17;12.70;;;;;;;11.11;95.13;99626.88;5033575;28;20278;-66
2023/10/19 04:16:44;;;;;;;15.03;12.37;;;;;;;11.07;95.18;99630.97;5033546;28;20203;-68
2023/10/19 04:19:10;;;;;;;17.53;13.87;;;;;;;11.02;96.32;99628.06;5033356;28;20229;-66
2023/10/19 04:21:38;;;;;;;16.87;13.50;;;;;;;11.02;96.98;99636.03;5032848;28;20673;-66
2023/10/19 04:24:07;;;;;;;15.73;14.03;;;;;;;11.04;96.62;99631.34;5033318;28;20202;-65
2023/10/19 04:26:37;;;;;;;21.47;13.97;;;;;;;11.01;95.86;99629.06;5033141;28;20595;-65
2023/10/19 04:29:10;;;;;;;15.17;12.70;;;;;;;11.02;96.00;99632.56;5033306;28;20648;-65
2023/10/19 04:31:37;;;;;;;21.67;14.20;;;;;;;11.04;96.81;99631.34;5033035;28;20548;-65
2023/10/19 04:34:07;;;;;;;16.37;13.33;;;;;;;11.11;96.38;99624.22;5032786;28;20765;-66
2023/10/19 04:36:35;;;;;;;19.03;13.37;;;;;;;11.16;95.62;99627.13;5032917;28;20214;-66
2023/10/19 04:39:02;;;;;;;15.73;13.80;;;;;;;11.18;95.15;99625.06;5032880;28;20262;-65
2023/10/19 04:41:29;;;;;;;19.40;13.27;;;;;;;11.18;95.31;99625.06;5032120;28;20290;-67
2023/10/19 04:43:58;;;;;;;17.30;13.63;;;;;;;11.19;94.36;99621.41;5040630;28;20201;-66
2023/10/19 04:46:25;;;;;;;17.60;12.97;;;;;;;11.19;94.07;99629.38;5042476;28;20189;-67
2023/10/19 04:48:51;;;;;;;14.33;12.93;;;;;;;11.14;94.01;99631.00;5041550;28;20232;-66
2023/10/19 04:51:18;;;;;;;20.20;13.07;;;;;;;11.19;94.00;99624.06;5042282;28;20190;-66
2023/10/19 04:53:45;;;;;;;16.90;13.97;;;;;;;11.19;93.70;99618.72;5042999;28;20689;-65
2023/10/19 04:56:12;;;;;;;16.50;13.93;;;;;;;11.24;93.22;99636.78;5043356;28;20216;-67
2023/10/19 04:58:39;;;;;;;16.23;12.33;;;;;;;11.20;92.88;99635.53;5042496;28;20216;-67
2023/10/19 05:01:07;;;;;;;16.43;12.37;;;;;;;11.23;92.46;99641.25;5041722;28;20266;-66
2023/10/19 05:03:34;;;;;;;14.10;12.33;;;;;;;11.26;92.37;99646.19;5042622;28;20261;-66
2023/10/19 05:06:01;;;;;;;18.40;13.97;;;;;;;11.30;92.61;99647.44;5039120;28;20277;-66
2023/10/19 05:08:29;;;;;;;16.17;13.20;;;;;;;11.34;92.20;99648.69;5038537;28;20199;-66
2023/10/19 05:10:58;;;;;;;19.43;13.30;;;;;;;11.42;91.82;99645.03;5038154;28;20725;-66
2023/10/19 05:13:26;;;;;;;16.23;12.53;;;;;;;11.39;90.81;99648.09;5048078;28;20210;-67
2023/10/19 05:15:53;;;;;;;13.73;11.80;;;;;;;11.36;91.30;99646.66;5045853;28;20242;-65
2023/10/19 05:18:22;;;;;;;16.60;8.97;;;;;;;11.64;96.37;99638.63;5042552;28;20304;-76
2023/10/19 05:20:49;;;;;;;19.00;12.23;;;;;;;12.30;90.87;99646.59;5051640;28;20203;-65
2023/10/19 05:23:16;;;;;;;15.13;10.87;;;;;;;12.39;87.36;99656.00;5031707;28;20261;-66
2023/10/19 05:25:43;;;;;;;14.83;11.23;;;;;;;12.45;86.80;99657.84;5031061;28;20201;-65
2023/10/19 05:28:10;;;;;;;43.00;11.10;;;;;;;12.56;85.99;99659.91;5031644;28;20197;-66
2023/10/19 05:30:37;;;;;;;18.03;10.27;;;;;;;12.53;85.27;99647.00;5031352;28;20228;-65
2023/10/19 05:33:05;;;;;;;17.43;10.07;;;;;;;12.63;82.99;99674.06;5031604;28;20236;-64
2023/10/19 05:35:40;;;;;;;15.53;10.53;;;;;;;12.57;83.53;99664.22;5031544;28;20311;-64
2023/10/19 05:38:07;;;;;;;11.67;10.10;;;;;;;12.67;85.33;99664.66;5031254;28;20211;-65
2023/10/19 05:40:35;;;;;;;12.10;10.87;;;;;;;12.73;82.37;99668.31;5031170;28;20243;-65
2023/10/19 05:43:04;;;;;;;23.03;10.67;;;;;;;12.82;83.83;99657.22;5030896;28;20665;-67
2023/10/19 05:45:30;;;;;;;19.03;11.07;;;;;;;12.89;80.85;99663.38;5026764;28;20190;-64
2023/10/19 05:47:58;;;;;;;19.33;10.03;;;;;;;12.94;80.87;99671.59;5027269;28;20201;-65
2023/10/19 05:50:24;;;;;;;13.73;11.20;;;;;;;12.92;82.98;99662.16;5038224;28;20257;-65
2023/10/19 05:52:52;;;;;;;11.60;9.77;;;;;;;12.94;81.10;99662.78;5038790;28;20276;-68
2023/10/19 05:55:21;;;;;;;12.43;10.07;;;;;;;13.07;82.26;99671.59;5033748;28;21617;-66
2023/10/19 05:57:49;;;;;;;9.93;7.50;;;;;;;13.28;83.65;99658.00;5035128;28;20536;-63
2023/10/19 06:00:17;;;;;;;12.73;7.97;;;;;;;14.34;86.64;99660.03;5036157;28;21024;-63
2023/10/19 06:02:45;;;;;;;12.67;8.83;;;;;;;15.25;80.75;99669.94;5037668;28;20189;-64
2023/10/19 06:05:13;;;;;;;7.80;7.03;;;;;;;15.93;77.78;99673.31;5047412;28;20231;-63
2023/10/19 06:07:40;;;;;;;9.23;8.33;;;;;;;16.69;70.94;99690.38;5036952;28;20509;-64
2023/10/19 06:10:09;;;;;;;10.70;7.40;;;;;;;17.32;69.50;99686.78;5040879;28;20197;-65
2023/10/19 06:12:37;;;;;;;9.83;8.20;;;;;;;17.68;62.69;99701.88;5033498;28;20197;-64
2023/10/19 06:15:04;;;;;;;10.80;8.80;;;;;;;17.31;63.89;99692.41;5036184;28;20299;-64
2023/10/19 06:17:31;;;;;;;11.70;8.53;;;;;;;16.97;66.96;99687.84;5037315;28;20194;-63
2023/10/19 06:19:58;;;;;;;8.67;6.50;;;;;;;17.22;68.65;99675.84;5040934;28;20727;-63
2023/10/19 06:22:24;;;;;;;8.47;7.63;;;;;;;17.90;66.14;99689.41;5040703;28;20208;-65
2023/10/19 06:24:51;;;;;;;12.60;8.20;;;;;;;18.68;62.26;99693.91;5039136;28;20188;-65
2023/10/19 06:27:19;;;;;;;8.30;7.50;;;;;;;19.43;61.56;99683.50;5039030;28;20247;-65
2023/10/19 06:29:46;;;;;;;10.37;8.20;;;;;;;19.75;55.08;99706.88;5040817;28;20227;-66
2023/10/19 06:32:14;;;;;;;15.10;9.10;;;;;;;19.80;54.74;99703.41;5039535;28;20671;-65
2023/10/19 06:34:41;;;;;;;15.60;7.33;;;;;;;20.24;57.17;99688.88;5037056;28;20309;-66
2023/10/19 06:37:10;;;;;;;12.00;7.73;;;;;;;20.72;55.81;99690.69;5040162;28;20220;-68
2023/10/19 06:39:40;;;;;;;15.10;8.40;;;;;;;21.30;52.96;99701.44;5038756;28;20213;-67
2023/10/19 06:42:13;;;;;;;11.73;7.60;;;;;;;21.60;49.90;99702.44;5040812;28;20178;-67
2023/10/19 06:44:43;;;;;;;8.23;7.40;;;;;;;21.65;51.16;99707.91;5040100;28;20250;-68
2023/10/19 06:47:10;;;;;;;8.63;6.33;;;;;;;21.94;50.47;99703.75;5044334;28;20676;-68
2023/10/19 06:49:37;;;;;;;7.20;6.80;;;;;;;22.24;48.49;99711.94;5040006;28;20324;-68
2023/10/19 06:52:04;;;;;;;20.97;9.03;;;;;;;22.50;46.64;99708.25;5031049;28;20189;-68
2023/10/19 06:54:31;;;;;;;10.23;6.93;;;;;;;22.68;48.01;99699.63;5033382;28;20291;-67
2023/10/19 06:56:58;;;;;;;7.40;6.70;;;;;;;22.91;46.32;99707.22;5037300;28;20197;-68
2023/10/19 06:59:25;;;;;;;12.90;9.07;;;;;;;23.13;46.52;99696.94;5035304;28;20218;-66
2023/10/19 07:01:53;;;;;;;18.70;8.80;;;;;;;23.16;45.58;99698.28;5033586;28;20196;-69
2023/10/19 07:04:20;;;;;;;13.67;7.73;;;;;;;23.36;46.01;99699.09;5030696;28;20646;-69
2023/10/19 07:06:47;;;;;;;17.70;7.70;;;;;;;23.36;44.46;99709.94;5033515;28;20268;-69
2023/10/19 07:09:15;;;;;;;27.27;8.17;;;;;;;23.15;45.85;99697.44;5037534;28;20262;-70
2023/10/19 07:11:44;;;;;;;11.30;6.93;;;;;;;23.28;45.16;99702.34;5032986;28;20675;-69
2023/10/19 07:14:12;;;;;;;8.93;6.93;;;;;;;23.11;44.95;99701.00;5033383;28;20233;-69
2023/10/19 07:16:40;;;;;;;8.37;7.60;;;;;;;22.45;45.23;99701.97;5033443;28;20275;-70
2023/10/19 07:19:09;;;;;;;7.43;6.67;;;;;;;21.82;48.80;99697.72;5021542;28;20225;-70
2023/10/19 07:21:37;;;;;;;10.50;6.97;;;;;;;21.54;49.82;99692.69;5033535;28;20197;-71
2023/10/19 07:24:09;;;;;;;8.73;8.03;;;;;;;21.50;47.87;99691.59;5033386;28;20194;-70
2023/10/19 07:26:43;;;;;;;11.00;9.20;;;;;;;20.90;50.22;99672.22;5033514;28;20256;-71
2023/10/19 07:29:10;;;;;;;7.30;6.43;;;;;;;20.47;53.61;99677.78;5028883;28;20197;-71
2023/10/19 07:31:37;;;;;;;9.00;8.40;;;;;;;20.50;52.23;99674.59;5031575;28;20228;-69
2023/10/19 07:34:03;;;;;;;12.67;6.43;;;;;;;20.81;53.88;99664.84;5032412;28;20233;-70
2023/10/19 07:36:31;;;;;;;8.17;7.33;;;;;;;21.27;52.22;99678.47;5032856;28;20197;-70
2023/10/19 07:38:58;;;;;;;9.63;8.83;;;;;;;21.46;50.20;99681.53;5033067;28;20229;-69
2023/10/19 07:41:25;;;;;;;11.13;7.03;;;;;;;21.39;51.85;99670.97;5033493;28;20201;-70
2023/10/19 07:43:51;;;;;;;11.33;8.70;;;;;;;21.20;50.93;99671.66;5033379;28;20197;-69
2023/10/19 07:46:18;;;;;;;14.77;8.93;;;;;;;21.08;50.24;99669.16;5033419;28;20201;-70
2023/10/19 07:48:45;;;;;;;9.27;8.47;;;;;;;20.76;52.19;99670.19;5032852;28;20627;-70
2023/10/19 07:51:12;;;;;;;12.57;9.03;;;;;;;20.42;52.71;99664.25;5033274;28;20255;-70
2023/10/19 07:53:40;;;;;;;8.37;7.37;;;;;;;20.94;52.30;99667.94;5032755;28;20225;-70
2023/10/19 07:56:06;;;;;;;8.40;7.63;;;;;;;21.45;49.97;99666.41;5032907;28;20638;-69
2023/10/19 07:58:34;;;;;;;27.57;8.80;;;;;;;21.89;48.07;99665.03;5033045;28;20198;-69
2023/10/19 08:01:01;;;;;;;15.73;9.77;;;;;;;22.14;47.96;99671.34;5033072;28;20200;-69
2023/10/19 08:03:28;;;;;;;13.37;10.50;;;;;;;22.31;48.06;99652.16;5032637;28;20208;-70
2023/10/19 08:05:54;;;;;;;9.73;8.67;;;;;;;22.07;46.98;99656.41;5033119;28;20204;-68
2023/10/19 08:08:24;;;;;;;10.50;9.30;;;;;;;22.02;47.47;99668.06;5034957;28;20198;-69
2023/10/19 08:10:51;;;;;;;9.90;8.93;;;;;;;21.86;48.82;99660.97;5032850;28;20193;-68
2023/10/19 08:13:18;;;;;;;10.33;9.30;;;;;;;21.60;48.43;99661.88;5029785;28;20594;-70
2023/10/19 08:15:44;;;;;;;8.17;7.63;;;;;;;21.81;48.60;99658.22;5040189;28;20255;-69
2023/10/19 08:18:12;;;;;;;9.97;7.80;;;;;;;22.19;47.98;99657.81;5032107;28;20202;-69
2023/10/19 08:20:39;;;;;;;10.27;9.33;;;;;;;22.28;46.65;99655.38;5031924;28;20232;-67
2023/10/19 08:23:06;;;;;;;10.37;9.47;;;;;;;22.57;46.20;99656.53;5032718;28;20216;-67
2023/10/19 08:25:33;;;;;;;9.33;8.63;;;;;;;22.53;46.05;99650.84;5032007;28;20255;-68
2023/10/19 08:28:01;;;;;;;8.10;7.30;;;;;;;22.58;47.37;99642.72;5031898;28;20300;-68
2023/10/19 08:30:28;;;;;;;11.53;10.30;;;;;;;22.57;47.24;99641.13;5032379;28;20233;-68
2023/10/19 08:32:57;;;;;;;12.10;10.90;;;;;;;22.49;45.95;99648.94;5032194;28;20248;-68
2023/10/19 08:35:25;;;;;;;11.23;10.33;;;;;;;22.35;47.64;99639.72;5032189;28;20900;-69
2023/10/19 08:37:52;;;;;;;10.53;9.70;;;;;;;22.64;45.23;99641.66;5031513;28;20197;-68
2023/10/19 08:40:21;;;;;;;25.90;11.57;;;;;;;22.96;44.62;99647.63;5031177;28;20303;-68
2023/10/19 08:42:48;;;;;;;11.20;8.67;;;;;;;23.08;45.33;99631.88;5032359;28;20189;-68
2023/10/19 08:45:16;;;;;;;11.17;10.20;;;;;;;22.86;46.05;99638.66;5031634;28;20190;-69
2023/10/19 08:47:50;;;;;;;14.97;10.37;;;;;;;22.54;48.38;99625.41;5028696;28;20221;-68
2023/10/19 08:50:20;;;;;;;12.33;11.13;;;;;;;22.56;46.58;99633.25;5029890;28;20652;-68
2023/10/19 08:52:48;;;;;;;14.73;11.23;;;;;;;22.67;46.53;99630.28;5028157;28;20244;-67
2023/10/19 08:55:15;;;;;;;10.07;8.80;;;;;;;22.90;46.28;99640.56;5022277;28;20198;-67
2023/10/19 08:57:42;;;;;;;13.33;11.97;;;;;;;23.04;44.47;99636.25;5018924;28;20197;-67
2023/10/19 09:00:11;;;;;;;11.93;10.40;;;;;;;22.93;45.92;99628.38;5016410;28;20264;-67
2023/10/19 09:02:39;;;;;;;14.47;11.30;;;;;;;23.23;44.93;99618.31;5010731;28;20203;-69
2023/10/19 09:05:19;;;;;;;11.17;9.93;;;;;;;23.52;44.97;99613.09;5030563;28;20554;-68
2023/10/19 09:07:47;;;;;;;15.80;12.43;;;;;;;23.79;42.96;99608.91;5030410;28;20610;-67
2023/10/19 09:10:17;;;;;;;13.70;11.10;;;;;;;23.95;43.21;99605.06;5032000;28;20202;-67
2023/10/19 09:12:43;;;;;;;15.07;12.00;;;;;;;23.99;42.32;99614.25;5031523;28;20737;-67
2023/10/19 09:15:23;;;;;;;12.97;11.63;;;;;;;23.91;42.59;99609.41;5031097;28;20340;-67
2023/10/19 09:17:54;;;;;;;16.07;14.23;;;;;;;23.90;42.65;99602.34;5030735;28;20191;-66
2023/10/19 09:20:27;;;;;;;14.00;12.40;;;;;;;23.70;43.82;99591.59;5035273;28;20216;-67
2023/10/19 09:22:54;;;;;;;20.10;11.53;;;;;;;23.87;43.58;99586.63;5031667;28;20218;-68
2023/10/19 09:25:22;;;;;;;15.43;13.00;;;;;;;24.12;42.99;99583.78;5031562;28;20195;-67
2023/10/19 09:27:49;;;;;;;12.90;10.80;;;;;;;24.38;42.58;99585.19;5030598;28;20209;-66
2023/10/19 09:30:18;;;;;;;14.90;11.47;;;;;;;24.55;41.35;99582.88;5031086;28;20196;-67
2023/10/19 09:32:47;;;;;;;13.10;10.43;;;;;;;24.63;41.19;99579.59;5030898;28;20283;-66
2023/10/19 09:35:17;;;;;;;13.30;12.10;;;;;;;24.72;41.03;99575.19;5031545;28;20286;-66
2023/10/19 09:37:43;;;;;;;11.50;10.37;;;;;;;24.60;40.92;99580.19;5030784;28;20204;-66
2023/10/19 09:40:12;;;;;;;12.43;11.20;;;;;;;24.63;40.43;99582.31;5030741;28;20256;-65
2023/10/19 09:42:45;;;;;;;12.97;10.53;;;;;;;24.66;40.88;99579.03;5030925;28;20213;-66
2023/10/19 09:45:13;;;;;;;9.20;8.37;;;;;;;24.78;40.71;99562.34;5011366;28;20229;-68
2023/10/19 09:47:45;;;;;;;10.93;7.80;;;;;;;24.95;40.88;99557.31;5010719;28;20255;-68
2023/10/19 09:50:12;;;;;;;9.33;8.50;;;;;;;24.80;40.23;99562.88;5010786;28;20201;-68
2023/10/19 09:52:41;;;;;;;10.23;9.50;;;;;;;24.62;39.06;99552.72;5009879;28;20198;-68
2023/10/19 09:55:15;;;;;;;11.33;9.07;;;;;;;24.46;39.93;99562.09;5029551;28;20207;-68
2023/10/19 09:57:50;;;;;;;9.60;8.97;;;;;;;24.13;40.23;99552.81;5030326;28;20185;-68
2023/10/19 10:00:23;;;;;;;11.73;9.93;;;;;;;23.78;42.31;99547.59;5010998;28;20281;-69
2023/10/19 10:02:50;;;;;;;9.37;8.67;;;;;;;23.45;42.36;99545.59;5030957;28;20195;-70
2023/10/19 10:05:48;;;;;;;9.63;8.83;;;;;;;23.14;42.98;99538.63;5030135;28;20252;-69
2023/10/19 10:08:37;;;;;;;11.63;10.40;;;;;;;22.98;44.03;99533.53;5033760;28;20991;-70
2023/10/19 10:11:21;;;;;;;9.13;8.37;;;;;;;22.81;44.92;99523.03;5030957;28;20191;-70
2023/10/19 10:13:51;;;;;;;10.43;9.60;;;;;;;22.56;46.25;99520.34;5031131;28;20256;-71
2023/10/19 10:16:19;;;;;;;15.27;10.23;;;;;;;22.45;46.56;99515.19;5030578;28;20280;-69
2023/10/19 10:18:50;;;;;;;10.20;9.30;;;;;;;21.92;47.44;99508.41;5030271;28;20190;-72
2023/10/19 10:21:19;;;;;;;9.37;8.77;;;;;;;21.89;47.56;99519.75;5031089;28;20213;-70
2023/10/19 10:23:48;;;;;;;9.57;8.87;;;;;;;21.77;48.33;99516.53;5031752;28;20217;-71
2023/10/19 10:26:16;;;;;;;10.20;9.27;;;;;;;21.54;48.81;99522.38;5030310;28;20558;-71
2023/10/19 10:28:47;;;;;;;10.03;9.07;;;;;;;21.38;49.25;99526.09;5030401;28;20197;-68
2023/10/19 10:31:16;;;;;;;9.90;9.00;;;;;;;21.31;49.56;99522.03;5030591;28;20312;-70
2023/10/19 10:33:46;;;;;;;9.60;9.00;;;;;;;21.30;49.88;99514.97;5030919;28;20189;-70
2023/10/19 10:36:13;;;;;;;9.83;9.07;;;;;;;21.32;49.72;99508.25;5030499;28;20189;-67
2023/10/19 10:38:40;;;;;;;12.25;11.32;;;;;;;21.50;49.45;99510.47;5029824;28;20461;-67
2023/10/19 10:41:11;;;;;;;10.53;9.43;;;;;;;21.78;48.69;99491.09;5034135;28;20232;-64
2023/10/19 10:43:52;;;;;;;9.33;8.43;;;;;;;21.94;48.24;99503.56;5034343;28;20190;-65
2023/10/19 10:46:21;;;;;;;10.00;9.10;;;;;;;21.90;47.73;99488.94;5034406;28;20280;-67
2023/10/19 10:48:48;;;;;;;9.93;9.23;;;;;;;22.14;47.59;99494.63;5034386;28;20247;-68
2023/10/19 10:51:19;;;;;;;9.17;8.57;;;;;;;22.26;47.07;99493.25;5034253;28;20205;-69
2023/10/19 10:53:48;;;;;;;10.00;9.23;;;;;;;22.41;46.83;99484.34;5034284;28;20240;-69
2023/10/19 10:56:16;;;;;;;9.70;8.73;;;;;;;22.51;45.91;99485.19;5034189;28;20242;-70
2023/10/19 10:58:43;;;;;;;9.23;8.53;;;;;;;22.42;45.97;99475.94;5034268;28;20194;-67
2023/10/19 11:01:10;;;;;;;9.90;8.77;;;;;;;22.32;46.28;99480.53;5034490;28;20217;-69
2023/10/19 11:03:37;;;;;;;9.43;8.73;;;;;;;22.35;46.16;99470.00;5034317;28;20194;-70
2023/10/19 11:06:07;;;;;;;10.10;8.13;;;;;;;22.23;46.16;99466.75;5033819;28;20251;-68
2023/10/19 11:08:35;;;;;;;10.00;9.30;;;;;;;22.04;46.82;99462.16;5033898;28;20201;-68
2023/10/19 11:11:07;;;;;;;10.20;9.50;;;;;;;22.08;46.32;99463.22;5033678;28;20664;-68
2023/10/19 11:13:35;;;;;;;10.10;9.10;;;;;;;22.05;46.30;99459.19;5033483;28;20597;-68
2023/10/19 11:16:05;;;;;;;10.23;9.17;;;;;;;22.03;45.76;99455.13;5033449;28;20657;-68
2023/10/19 11:18:35;;;;;;;13.40;9.23;;;;;;;22.13;46.27;99445.09;5033868;28;20205;-68
2023/10/19 11:21:05;;;;;;;10.53;9.67;;;;;;;22.17;46.41;99435.38;5033793;28;20225;-69
2023/10/19 11:23:43;;;;;;;12.07;10.90;;;;;;;21.66;47.52;99441.84;5033567;28;20218;-67
2023/10/19 11:26:10;;;;;;;11.33;10.23;;;;;;;21.54;47.83;99427.75;5013538;28;20277;-69
2023/10/19 11:28:47;;;;;;;10.63;9.60;;;;;;;21.60;47.63;99421.25;5014355;28;20202;-68
2023/10/19 11:31:15;;;;;;;10.13;9.23;;;;;;;21.18;48.61;99417.13;5033682;28;20193;-70